sensor_id;sensor_type;location;lat;lon;timestamp;P1;durP1;ratioP1;P2;durP2;ratioP2
24153;SDS011;12312;53.362;-1.518;2023-06-10T00:02:04;39.90;;;20.80;;
24153;SDS011;12312;53.362;-1.518;2023-06-10T00:04:49;37.53;;;21.25;;
24153;SDS011;12312;53.362;-1.518;2023-06-10T00:07:36;37.20;;;20.17;;
24153;SDS011;12312;53.362;-1.518;2023-06-10T00:10:23;39.75;;;22.13;;
24153;SDS011;12312;53.362;-1.518;2023-06-10T00:13:07;36.77;;;21.60;;
24153;SDS011;12312;53.362;-1.518;2023-06-10T00:15:52;37.28;;;19.05;;
24153;SDS011;12312;53.362;-1.518;2023-06-10T00:18:36;29.80;;;18.15;;
24153;SDS011;12312;53.362;-1.518;2023-06-10T00:21:22;33.75;;;19.80;;
24153;SDS011;12312;53.362;-1.518;2023-06-10T00:24:08;32.65;;;18.33;;
24153;SDS011;12312;53.362;-1.518;2023-06-10T00:26:57;37.35;;;19.67;;
24153;SDS011;12312;53.362;-1.518;2023-06-10T00:29:41;47.22;;;27.65;;
24153;SDS011;12312;53.362;-1.518;2023-06-10T00:32:25;55.00;;;28.55;;
24153;SDS011;12312;53.362;-1.518;2023-06-10T00:35:09;53.38;;;29.20;;
24153;SDS011;12312;53.362;-1.518;2023-06-10T00:37:54;57.35;;;29.73;;
24153;SDS011;12312;53.362;-1.518;2023-06-10T00:40:41;59.45;;;30.38;;
24153;SDS011;12312;53.362;-1.518;2023-06-10T00:43:25;59.45;;;28.85;;
24153;SDS011;12312;53.362;-1.518;2023-06-10T00:46:09;55.20;;;30.70;;
24153;SDS011;12312;53.362;-1.518;2023-06-10T00:48:55;61.25;;;29.85;;
24153;SDS011;12312;53.362;-1.518;2023-06-10T00:51:40;58.38;;;28.80;;
24153;SDS011;12312;53.362;-1.518;2023-06-10T00:54:24;55.28;;;28.83;;
24153;SDS011;12312;53.362;-1.518;2023-06-10T00:57:09;64.20;;;30.33;;
24153;SDS011;12312;53.362;-1.518;2023-06-10T00:59:53;57.50;;;30.30;;
24153;SDS011;12312;53.362;-1.518;2023-06-10T01:02:37;56.85;;;30.67;;
24153;SDS011;12312;53.362;-1.518;2023-06-10T01:05:23;56.95;;;27.77;;
24153;SDS011;12312;53.362;-1.518;2023-06-10T01:08:23;57.50;;;29.03;;
24153;SDS011;12312;53.362;-1.518;2023-06-10T01:11:21;60.20;;;27.90;;
24153;SDS011;12312;53.362;-1.518;2023-06-10T01:14:09;55.50;;;27.92;;
24153;SDS011;12312;53.362;-1.518;2023-06-10T01:16:53;62.70;;;28.58;;
24153;SDS011;12312;53.362;-1.518;2023-06-10T01:19:38;63.15;;;29.90;;
24153;SDS011;12312;53.362;-1.518;2023-06-10T01:22:25;66.97;;;30.63;;
24153;SDS011;12312;53.362;-1.518;2023-06-10T01:25:16;68.85;;;31.85;;
24153;SDS011;12312;53.362;-1.518;2023-06-10T01:34:07;66.38;;;31.75;;
24153;SDS011;12312;53.362;-1.518;2023-06-10T01:36:54;67.43;;;30.40;;
24153;SDS011;12312;53.362;-1.518;2023-06-10T01:39:42;72.90;;;32.33;;
24153;SDS011;12312;53.362;-1.518;2023-06-10T01:42:26;70.50;;;31.10;;
24153;SDS011;12312;53.362;-1.518;2023-06-10T01:45:11;67.68;;;31.65;;
24153;SDS011;12312;53.362;-1.518;2023-06-10T01:47:55;63.90;;;30.70;;
24153;SDS011;12312;53.362;-1.518;2023-06-10T01:50:39;75.20;;;31.73;;
24153;SDS011;12312;53.362;-1.518;2023-06-10T01:53:23;178.63;;;38.25;;
24153;SDS011;12312;53.362;-1.518;2023-06-10T01:56:08;69.90;;;32.95;;
24153;SDS011;12312;53.362;-1.518;2023-06-10T01:58:52;65.00;;;31.52;;
24153;SDS011;12312;53.362;-1.518;2023-06-10T02:01:38;67.30;;;33.25;;
24153;SDS011;12312;53.362;-1.518;2023-06-10T02:04:22;62.33;;;29.80;;
24153;SDS011;12312;53.362;-1.518;2023-06-10T02:07:06;67.18;;;31.95;;
24153;SDS011;12312;53.362;-1.518;2023-06-10T02:09:51;70.82;;;32.65;;
24153;SDS011;12312;53.362;-1.518;2023-06-10T02:12:35;72.32;;;32.60;;
24153;SDS011;12312;53.362;-1.518;2023-06-10T02:15:19;67.40;;;31.30;;
24153;SDS011;12312;53.362;-1.518;2023-06-10T02:18:03;69.82;;;30.45;;
24153;SDS011;12312;53.362;-1.518;2023-06-10T02:20:47;67.88;;;31.95;;
24153;SDS011;12312;53.362;-1.518;2023-06-10T02:23:31;62.65;;;29.95;;
24153;SDS011;12312;53.362;-1.518;2023-06-10T02:26:15;67.93;;;29.90;;
24153;SDS011;12312;53.362;-1.518;2023-06-10T02:28:59;68.70;;;32.60;;
24153;SDS011;12312;53.362;-1.518;2023-06-10T02:31:42;63.70;;;30.30;;
24153;SDS011;12312;53.362;-1.518;2023-06-10T02:34:26;72.40;;;33.33;;
24153;SDS011;12312;53.362;-1.518;2023-06-10T02:37:11;66.22;;;32.10;;
24153;SDS011;12312;53.362;-1.518;2023-06-10T02:39:55;70.95;;;31.92;;
24153;SDS011;12312;53.362;-1.518;2023-06-10T02:42:39;62.75;;;30.20;;
24153;SDS011;12312;53.362;-1.518;2023-06-10T02:45:23;66.30;;;31.10;;
24153;SDS011;12312;53.362;-1.518;2023-06-10T02:48:07;64.47;;;31.60;;
24153;SDS011;12312;53.362;-1.518;2023-06-10T02:50:51;69.53;;;32.28;;
24153;SDS011;12312;53.362;-1.518;2023-06-10T02:53:35;66.22;;;31.38;;
24153;SDS011;12312;53.362;-1.518;2023-06-10T02:56:19;64.53;;;32.35;;
24153;SDS011;12312;53.362;-1.518;2023-06-10T02:59:03;70.32;;;33.25;;
24153;SDS011;12312;53.362;-1.518;2023-06-10T03:01:47;60.97;;;29.50;;
24153;SDS011;12312;53.362;-1.518;2023-06-10T03:04:31;61.40;;;29.67;;
24153;SDS011;12312;53.362;-1.518;2023-06-10T03:07:15;62.05;;;30.08;;
24153;SDS011;12312;53.362;-1.518;2023-06-10T03:09:59;68.43;;;31.23;;
24153;SDS011;12312;53.362;-1.518;2023-06-10T03:12:43;59.47;;;28.08;;
24153;SDS011;12312;53.362;-1.518;2023-06-10T03:15:27;61.25;;;28.75;;
24153;SDS011;12312;53.362;-1.518;2023-06-10T03:18:12;60.50;;;28.58;;
24153;SDS011;12312;53.362;-1.518;2023-06-10T03:20:56;60.95;;;28.02;;
24153;SDS011;12312;53.362;-1.518;2023-06-10T03:23:41;61.60;;;29.52;;
24153;SDS011;12312;53.362;-1.518;2023-06-10T03:26:26;63.17;;;29.17;;
24153;SDS011;12312;53.362;-1.518;2023-06-10T03:29:11;70.00;;;30.85;;
24153;SDS011;12312;53.362;-1.518;2023-06-10T03:31:55;68.57;;;31.13;;
24153;SDS011;12312;53.362;-1.518;2023-06-10T03:34:40;67.65;;;30.42;;
24153;SDS011;12312;53.362;-1.518;2023-06-10T03:37:25;69.50;;;30.15;;
24153;SDS011;12312;53.362;-1.518;2023-06-10T03:40:09;70.18;;;31.45;;
24153;SDS011;12312;53.362;-1.518;2023-06-10T03:42:53;67.18;;;28.67;;
24153;SDS011;12312;53.362;-1.518;2023-06-10T03:45:37;66.28;;;30.30;;
24153;SDS011;12312;53.362;-1.518;2023-06-10T03:48:21;68.25;;;29.65;;
24153;SDS011;12312;53.362;-1.518;2023-06-10T03:51:05;71.32;;;28.65;;
24153;SDS011;12312;53.362;-1.518;2023-06-10T03:53:49;64.88;;;27.63;;
24153;SDS011;12312;53.362;-1.518;2023-06-10T03:56:34;78.25;;;29.90;;
24153;SDS011;12312;53.362;-1.518;2023-06-10T03:59:19;68.90;;;26.73;;
24153;SDS011;12312;53.362;-1.518;2023-06-10T04:02:03;72.82;;;28.73;;
24153;SDS011;12312;53.362;-1.518;2023-06-10T04:04:48;71.82;;;29.48;;
24153;SDS011;12312;53.362;-1.518;2023-06-10T04:07:32;74.18;;;29.10;;
24153;SDS011;12312;53.362;-1.518;2023-06-10T04:10:18;76.90;;;30.45;;
24153;SDS011;12312;53.362;-1.518;2023-06-10T04:13:02;78.78;;;29.50;;
24153;SDS011;12312;53.362;-1.518;2023-06-10T04:15:47;68.63;;;28.73;;
24153;SDS011;12312;53.362;-1.518;2023-06-10T04:18:31;72.60;;;28.27;;
24153;SDS011;12312;53.362;-1.518;2023-06-10T04:21:15;69.82;;;27.50;;
24153;SDS011;12312;53.362;-1.518;2023-06-10T04:23:59;71.03;;;27.85;;
24153;SDS011;12312;53.362;-1.518;2023-06-10T04:26:43;66.43;;;26.10;;
24153;SDS011;12312;53.362;-1.518;2023-06-10T04:29:28;65.43;;;25.83;;
24153;SDS011;12312;53.362;-1.518;2023-06-10T04:32:12;71.75;;;25.63;;
24153;SDS011;12312;53.362;-1.518;2023-06-10T04:34:56;71.55;;;25.08;;
24153;SDS011;12312;53.362;-1.518;2023-06-10T04:37:40;69.85;;;26.13;;
24153;SDS011;12312;53.362;-1.518;2023-06-10T04:40:25;70.15;;;26.02;;
24153;SDS011;12312;53.362;-1.518;2023-06-10T04:43:10;71.93;;;27.42;;
24153;SDS011;12312;53.362;-1.518;2023-06-10T04:45:54;65.90;;;26.15;;
24153;SDS011;12312;53.362;-1.518;2023-06-10T04:48:39;68.32;;;27.13;;
24153;SDS011;12312;53.362;-1.518;2023-06-10T04:51:23;68.40;;;25.48;;
24153;SDS011;12312;53.362;-1.518;2023-06-10T04:54:07;76.03;;;27.05;;
24153;SDS011;12312;53.362;-1.518;2023-06-10T04:56:52;62.20;;;25.63;;
24153;SDS011;12312;53.362;-1.518;2023-06-10T04:59:35;65.45;;;26.67;;
24153;SDS011;12312;53.362;-1.518;2023-06-10T05:02:22;61.58;;;24.77;;
24153;SDS011;12312;53.362;-1.518;2023-06-10T05:05:05;66.78;;;25.77;;
24153;SDS011;12312;53.362;-1.518;2023-06-10T05:07:50;57.40;;;25.00;;
24153;SDS011;12312;53.362;-1.518;2023-06-10T05:10:34;62.70;;;25.50;;
24153;SDS011;12312;53.362;-1.518;2023-06-10T05:13:18;59.88;;;26.45;;
24153;SDS011;12312;53.362;-1.518;2023-06-10T05:16:02;60.83;;;24.37;;
24153;SDS011;12312;53.362;-1.518;2023-06-10T05:18:47;55.60;;;23.10;;
24153;SDS011;12312;53.362;-1.518;2023-06-10T05:21:31;56.15;;;24.75;;
24153;SDS011;12312;53.362;-1.518;2023-06-10T05:24:15;66.38;;;24.80;;
24153;SDS011;12312;53.362;-1.518;2023-06-10T05:26:59;60.65;;;23.23;;
24153;SDS011;12312;53.362;-1.518;2023-06-10T05:29:43;56.08;;;23.42;;
24153;SDS011;12312;53.362;-1.518;2023-06-10T05:32:26;51.75;;;22.33;;
24153;SDS011;12312;53.362;-1.518;2023-06-10T05:35:10;50.50;;;22.83;;
24153;SDS011;12312;53.362;-1.518;2023-06-10T05:37:54;50.75;;;20.05;;
24153;SDS011;12312;53.362;-1.518;2023-06-10T05:40:39;50.45;;;21.88;;
24153;SDS011;12312;53.362;-1.518;2023-06-10T05:43:23;57.50;;;22.58;;
24153;SDS011;12312;53.362;-1.518;2023-06-10T05:46:07;50.13;;;21.73;;
24153;SDS011;12312;53.362;-1.518;2023-06-10T05:48:51;44.00;;;20.27;;
24153;SDS011;12312;53.362;-1.518;2023-06-10T05:51:35;52.03;;;22.45;;
24153;SDS011;12312;53.362;-1.518;2023-06-10T05:54:20;41.58;;;19.83;;
24153;SDS011;12312;53.362;-1.518;2023-06-10T05:57:05;55.55;;;22.08;;
24153;SDS011;12312;53.362;-1.518;2023-06-10T05:59:49;41.03;;;19.58;;
24153;SDS011;12312;53.362;-1.518;2023-06-10T06:02:33;47.35;;;20.13;;
24153;SDS011;12312;53.362;-1.518;2023-06-10T06:05:17;44.35;;;20.38;;
24153;SDS011;12312;53.362;-1.518;2023-06-10T06:08:01;49.00;;;20.92;;
24153;SDS011;12312;53.362;-1.518;2023-06-10T06:10:45;43.70;;;20.02;;
24153;SDS011;12312;53.362;-1.518;2023-06-10T06:13:31;41.38;;;19.73;;
24153;SDS011;12312;53.362;-1.518;2023-06-10T06:16:15;44.45;;;19.95;;
24153;SDS011;12312;53.362;-1.518;2023-06-10T06:19:00;46.95;;;19.60;;
24153;SDS011;12312;53.362;-1.518;2023-06-10T06:21:44;40.63;;;19.13;;
24153;SDS011;12312;53.362;-1.518;2023-06-10T06:24:28;45.40;;;19.95;;
24153;SDS011;12312;53.362;-1.518;2023-06-10T06:27:12;47.47;;;20.33;;
24153;SDS011;12312;53.362;-1.518;2023-06-10T06:29:56;47.58;;;19.73;;
24153;SDS011;12312;53.362;-1.518;2023-06-10T06:32:40;42.30;;;18.50;;
24153;SDS011;12312;53.362;-1.518;2023-06-10T06:35:24;41.13;;;18.70;;
24153;SDS011;12312;53.362;-1.518;2023-06-10T06:38:09;44.83;;;18.55;;
24153;SDS011;12312;53.362;-1.518;2023-06-10T06:40:55;38.92;;;18.23;;
24153;SDS011;12312;53.362;-1.518;2023-06-10T06:43:39;41.97;;;17.33;;
24153;SDS011;12312;53.362;-1.518;2023-06-10T06:46:23;43.28;;;18.25;;
24153;SDS011;12312;53.362;-1.518;2023-06-10T06:49:07;37.58;;;17.73;;
24153;SDS011;12312;53.362;-1.518;2023-06-10T06:51:51;46.25;;;17.90;;
24153;SDS011;12312;53.362;-1.518;2023-06-10T06:54:35;37.67;;;15.63;;
24153;SDS011;12312;53.362;-1.518;2023-06-10T06:57:19;35.42;;;16.77;;
24153;SDS011;12312;53.362;-1.518;2023-06-10T07:00:03;38.08;;;17.00;;
24153;SDS011;12312;53.362;-1.518;2023-06-10T07:02:48;42.97;;;17.20;;
24153;SDS011;12312;53.362;-1.518;2023-06-10T07:05:32;40.70;;;17.35;;
24153;SDS011;12312;53.362;-1.518;2023-06-10T07:08:16;36.00;;;16.10;;
24153;SDS011;12312;53.362;-1.518;2023-06-10T07:11:00;37.47;;;17.20;;
24153;SDS011;12312;53.362;-1.518;2023-06-10T07:13:44;30.25;;;15.68;;
24153;SDS011;12312;53.362;-1.518;2023-06-10T07:16:28;34.67;;;16.25;;
24153;SDS011;12312;53.362;-1.518;2023-06-10T07:19:12;29.50;;;15.75;;
24153;SDS011;12312;53.362;-1.518;2023-06-10T07:21:57;33.17;;;15.55;;
24153;SDS011;12312;53.362;-1.518;2023-06-10T07:24:41;38.15;;;17.65;;
24153;SDS011;12312;53.362;-1.518;2023-06-10T07:27:25;32.72;;;16.95;;
24153;SDS011;12312;53.362;-1.518;2023-06-10T07:30:09;41.63;;;17.77;;
24153;SDS011;12312;53.362;-1.518;2023-06-10T07:32:54;37.63;;;17.30;;
24153;SDS011;12312;53.362;-1.518;2023-06-10T07:35:39;31.90;;;16.13;;
24153;SDS011;12312;53.362;-1.518;2023-06-10T07:38:24;33.28;;;15.88;;
24153;SDS011;12312;53.362;-1.518;2023-06-10T07:41:11;30.50;;;16.05;;
24153;SDS011;12312;53.362;-1.518;2023-06-10T07:43:55;31.60;;;16.77;;
24153;SDS011;12312;53.362;-1.518;2023-06-10T07:46:40;29.48;;;14.50;;
24153;SDS011;12312;53.362;-1.518;2023-06-10T07:49:23;32.92;;;14.60;;
24153;SDS011;12312;53.362;-1.518;2023-06-10T07:52:07;25.63;;;14.35;;
24153;SDS011;12312;53.362;-1.518;2023-06-10T07:54:52;36.50;;;14.60;;
24153;SDS011;12312;53.362;-1.518;2023-06-10T07:57:36;31.45;;;14.30;;
24153;SDS011;12312;53.362;-1.518;2023-06-10T08:00:22;29.40;;;12.70;;
24153;SDS011;12312;53.362;-1.518;2023-06-10T08:03:07;27.80;;;13.45;;
24153;SDS011;12312;53.362;-1.518;2023-06-10T08:05:51;26.63;;;13.10;;
24153;SDS011;12312;53.362;-1.518;2023-06-10T08:08:35;24.70;;;12.65;;
24153;SDS011;12312;53.362;-1.518;2023-06-10T08:11:24;25.40;;;12.25;;
24153;SDS011;12312;53.362;-1.518;2023-06-10T08:14:12;20.38;;;12.00;;
24153;SDS011;12312;53.362;-1.518;2023-06-10T08:16:55;27.10;;;12.68;;
24153;SDS011;12312;53.362;-1.518;2023-06-10T08:19:40;22.33;;;12.77;;
24153;SDS011;12312;53.362;-1.518;2023-06-10T08:22:24;29.55;;;11.98;;
24153;SDS011;12312;53.362;-1.518;2023-06-10T08:25:08;22.30;;;11.70;;
24153;SDS011;12312;53.362;-1.518;2023-06-10T08:27:52;24.70;;;11.82;;
24153;SDS011;12312;53.362;-1.518;2023-06-10T08:30:41;24.25;;;11.50;;
24153;SDS011;12312;53.362;-1.518;2023-06-10T08:33:25;22.10;;;11.10;;
24153;SDS011;12312;53.362;-1.518;2023-06-10T08:36:09;25.63;;;11.20;;
24153;SDS011;12312;53.362;-1.518;2023-06-10T08:38:53;23.40;;;11.20;;
24153;SDS011;12312;53.362;-1.518;2023-06-10T08:41:40;26.67;;;10.93;;
24153;SDS011;12312;53.362;-1.518;2023-06-10T08:44:28;26.80;;;10.90;;
24153;SDS011;12312;53.362;-1.518;2023-06-10T08:47:13;23.48;;;10.60;;
24153;SDS011;12312;53.362;-1.518;2023-06-10T08:50:02;18.08;;;10.18;;
24153;SDS011;12312;53.362;-1.518;2023-06-10T08:52:48;22.55;;;11.32;;
24153;SDS011;12312;53.362;-1.518;2023-06-10T08:55:41;22.38;;;10.35;;
24153;SDS011;12312;53.362;-1.518;2023-06-10T08:58:26;24.52;;;10.80;;
24153;SDS011;12312;53.362;-1.518;2023-06-10T09:01:11;20.88;;;10.38;;
24153;SDS011;12312;53.362;-1.518;2023-06-10T09:03:57;25.85;;;12.43;;
24153;SDS011;12312;53.362;-1.518;2023-06-10T09:06:42;23.85;;;11.27;;
24153;SDS011;12312;53.362;-1.518;2023-06-10T09:09:28;26.02;;;11.52;;
24153;SDS011;12312;53.362;-1.518;2023-06-10T09:12:14;24.55;;;11.43;;
24153;SDS011;12312;53.362;-1.518;2023-06-10T09:14:59;29.95;;;11.35;;
24153;SDS011;12312;53.362;-1.518;2023-06-10T09:17:44;23.70;;;10.45;;
24153;SDS011;12312;53.362;-1.518;2023-06-10T09:20:29;18.45;;;10.68;;
24153;SDS011;12312;53.362;-1.518;2023-06-10T09:23:13;27.75;;;11.40;;
24153;SDS011;12312;53.362;-1.518;2023-06-10T09:26:00;22.92;;;11.27;;
24153;SDS011;12312;53.362;-1.518;2023-06-10T09:28:44;27.92;;;11.85;;
24153;SDS011;12312;53.362;-1.518;2023-06-10T09:31:33;27.13;;;10.85;;
24153;SDS011;12312;53.362;-1.518;2023-06-10T09:34:19;25.58;;;10.07;;
24153;SDS011;12312;53.362;-1.518;2023-06-10T09:37:09;26.23;;;11.88;;
24153;SDS011;12312;53.362;-1.518;2023-06-10T09:40:05;26.83;;;11.25;;
24153;SDS011;12312;53.362;-1.518;2023-06-10T09:42:54;23.98;;;10.38;;
24153;SDS011;12312;53.362;-1.518;2023-06-10T09:45:39;22.05;;;10.52;;
24153;SDS011;12312;53.362;-1.518;2023-06-10T09:48:23;26.80;;;11.25;;
24153;SDS011;12312;53.362;-1.518;2023-06-10T09:51:11;29.33;;;10.48;;
24153;SDS011;12312;53.362;-1.518;2023-06-10T09:53:56;23.50;;;10.13;;
24153;SDS011;12312;53.362;-1.518;2023-06-10T09:56:40;24.98;;;11.15;;
24153;SDS011;12312;53.362;-1.518;2023-06-10T09:59:29;21.95;;;10.65;;
24153;SDS011;12312;53.362;-1.518;2023-06-10T10:02:16;29.98;;;12.20;;
24153;SDS011;12312;53.362;-1.518;2023-06-10T10:05:03;33.13;;;12.85;;
24153;SDS011;12312;53.362;-1.518;2023-06-10T10:07:50;26.13;;;11.70;;
24153;SDS011;12312;53.362;-1.518;2023-06-10T10:10:35;29.38;;;12.15;;
24153;SDS011;12312;53.362;-1.518;2023-06-10T10:13:19;24.13;;;11.63;;
24153;SDS011;12312;53.362;-1.518;2023-06-10T10:16:15;24.02;;;12.13;;
24153;SDS011;12312;53.362;-1.518;2023-06-10T10:19:04;24.98;;;11.68;;
24153;SDS011;12312;53.362;-1.518;2023-06-10T10:22:04;25.30;;;12.45;;
24153;SDS011;12312;53.362;-1.518;2023-06-10T10:24:55;26.08;;;12.15;;
24153;SDS011;12312;53.362;-1.518;2023-06-10T10:27:47;21.73;;;12.40;;
24153;SDS011;12312;53.362;-1.518;2023-06-10T10:30:42;24.58;;;11.18;;
24153;SDS011;12312;53.362;-1.518;2023-06-10T10:33:48;22.05;;;11.93;;
24153;SDS011;12312;53.362;-1.518;2023-06-10T10:36:40;25.95;;;12.45;;
24153;SDS011;12312;53.362;-1.518;2023-06-10T10:39:25;26.30;;;12.23;;
24153;SDS011;12312;53.362;-1.518;2023-06-10T10:42:11;27.40;;;13.20;;
24153;SDS011;12312;53.362;-1.518;2023-06-10T10:44:56;26.20;;;11.93;;
24153;SDS011;12312;53.362;-1.518;2023-06-10T10:47:43;22.05;;;12.65;;
24153;SDS011;12312;53.362;-1.518;2023-06-10T10:50:29;24.48;;;13.73;;
24153;SDS011;12312;53.362;-1.518;2023-06-10T10:53:19;24.05;;;11.93;;
24153;SDS011;12312;53.362;-1.518;2023-06-10T10:56:07;20.88;;;11.48;;
24153;SDS011;12312;53.362;-1.518;2023-06-10T10:59:03;24.60;;;11.45;;
24153;SDS011;12312;53.362;-1.518;2023-06-10T11:01:49;29.98;;;13.10;;
24153;SDS011;12312;53.362;-1.518;2023-06-10T11:04:32;28.20;;;13.10;;
24153;SDS011;12312;53.362;-1.518;2023-06-10T11:07:19;24.10;;;11.73;;
24153;SDS011;12312;53.362;-1.518;2023-06-10T11:12:53;23.58;;;11.55;;
24153;SDS011;12312;53.362;-1.518;2023-06-10T11:15:38;25.38;;;12.05;;
24153;SDS011;12312;53.362;-1.518;2023-06-10T11:18:38;20.37;;;11.90;;
24153;SDS011;12312;53.362;-1.518;2023-06-10T11:21:23;26.38;;;11.73;;
24153;SDS011;12312;53.362;-1.518;2023-06-10T11:24:12;25.08;;;12.38;;
24153;SDS011;12312;53.362;-1.518;2023-06-10T11:27:16;25.25;;;12.98;;
24153;SDS011;12312;53.362;-1.518;2023-06-10T11:32:50;24.00;;;11.57;;
24153;SDS011;12312;53.362;-1.518;2023-06-10T11:35:35;25.92;;;12.25;;
24153;SDS011;12312;53.362;-1.518;2023-06-10T11:38:19;28.83;;;12.32;;
24153;SDS011;12312;53.362;-1.518;2023-06-10T11:41:03;25.67;;;11.55;;
24153;SDS011;12312;53.362;-1.518;2023-06-10T11:43:47;21.85;;;9.70;;
24153;SDS011;12312;53.362;-1.518;2023-06-10T11:46:31;21.73;;;11.93;;
24153;SDS011;12312;53.362;-1.518;2023-06-10T11:49:16;22.42;;;11.82;;
24153;SDS011;12312;53.362;-1.518;2023-06-10T11:52:03;17.83;;;11.10;;
24153;SDS011;12312;53.362;-1.518;2023-06-10T11:54:57;23.30;;;10.13;;
24153;SDS011;12312;53.362;-1.518;2023-06-10T11:57:41;19.15;;;9.65;;
24153;SDS011;12312;53.362;-1.518;2023-06-10T12:00:25;20.17;;;10.38;;
24153;SDS011;12312;53.362;-1.518;2023-06-10T12:03:09;22.30;;;10.88;;
24153;SDS011;12312;53.362;-1.518;2023-06-10T12:08:42;21.70;;;10.65;;
24153;SDS011;12312;53.362;-1.518;2023-06-10T12:11:27;21.75;;;10.43;;
24153;SDS011;12312;53.362;-1.518;2023-06-10T12:14:11;25.50;;;10.10;;
24153;SDS011;12312;53.362;-1.518;2023-06-10T12:16:55;17.35;;;9.25;;
24153;SDS011;12312;53.362;-1.518;2023-06-10T12:19:40;21.27;;;9.88;;
24153;SDS011;12312;53.362;-1.518;2023-06-10T12:22:24;19.13;;;9.45;;
24153;SDS011;12312;53.362;-1.518;2023-06-10T12:25:09;19.85;;;9.50;;
24153;SDS011;12312;53.362;-1.518;2023-06-10T12:27:54;18.63;;;9.27;;
24153;SDS011;12312;53.362;-1.518;2023-06-10T12:30:40;22.77;;;10.40;;
24153;SDS011;12312;53.362;-1.518;2023-06-10T12:33:24;22.35;;;9.50;;
24153;SDS011;12312;53.362;-1.518;2023-06-10T12:36:15;23.58;;;9.82;;
24153;SDS011;12312;53.362;-1.518;2023-06-10T12:39:04;16.58;;;8.98;;
24153;SDS011;12312;53.362;-1.518;2023-06-10T12:41:48;20.27;;;9.63;;
24153;SDS011;12312;53.362;-1.518;2023-06-10T12:44:34;21.85;;;10.57;;
24153;SDS011;12312;53.362;-1.518;2023-06-10T12:47:19;18.90;;;9.52;;
24153;SDS011;12312;53.362;-1.518;2023-06-10T12:50:03;21.02;;;9.57;;
24153;SDS011;12312;53.362;-1.518;2023-06-10T12:52:48;21.77;;;8.70;;
24153;SDS011;12312;53.362;-1.518;2023-06-10T12:55:32;18.75;;;10.07;;
24153;SDS011;12312;53.362;-1.518;2023-06-10T12:58:18;16.40;;;9.40;;
24153;SDS011;12312;53.362;-1.518;2023-06-10T13:01:03;17.08;;;8.90;;
24153;SDS011;12312;53.362;-1.518;2023-06-10T13:03:48;19.00;;;9.63;;
24153;SDS011;12312;53.362;-1.518;2023-06-10T13:06:32;15.10;;;8.45;;
24153;SDS011;12312;53.362;-1.518;2023-06-10T13:09:21;15.00;;;9.98;;
24153;SDS011;12312;53.362;-1.518;2023-06-10T13:12:05;19.30;;;9.10;;
24153;SDS011;12312;53.362;-1.518;2023-06-10T13:14:50;19.60;;;9.10;;
24153;SDS011;12312;53.362;-1.518;2023-06-10T13:17:34;20.60;;;8.70;;
24153;SDS011;12312;53.362;-1.518;2023-06-10T13:23:04;20.00;;;8.77;;
24153;SDS011;12312;53.362;-1.518;2023-06-10T13:25:48;16.67;;;8.90;;
24153;SDS011;12312;53.362;-1.518;2023-06-10T13:28:32;19.63;;;8.80;;
24153;SDS011;12312;53.362;-1.518;2023-06-10T13:31:16;17.05;;;8.45;;
24153;SDS011;12312;53.362;-1.518;2023-06-10T13:34:00;15.07;;;8.07;;
24153;SDS011;12312;53.362;-1.518;2023-06-10T13:36:44;16.52;;;8.35;;
24153;SDS011;12312;53.362;-1.518;2023-06-10T13:39:28;20.02;;;8.90;;
24153;SDS011;12312;53.362;-1.518;2023-06-10T13:42:12;14.32;;;7.82;;
24153;SDS011;12312;53.362;-1.518;2023-06-10T13:44:56;16.85;;;8.27;;
24153;SDS011;12312;53.362;-1.518;2023-06-10T13:47:42;13.55;;;7.68;;
24153;SDS011;12312;53.362;-1.518;2023-06-10T13:50:26;13.00;;;8.02;;
24153;SDS011;12312;53.362;-1.518;2023-06-10T13:53:10;12.75;;;8.00;;
24153;SDS011;12312;53.362;-1.518;2023-06-10T13:55:54;18.70;;;9.10;;
24153;SDS011;12312;53.362;-1.518;2023-06-10T13:58:38;13.93;;;8.45;;
24153;SDS011;12312;53.362;-1.518;2023-06-10T14:01:24;12.25;;;7.57;;
24153;SDS011;12312;53.362;-1.518;2023-06-10T14:04:08;13.05;;;8.80;;
24153;SDS011;12312;53.362;-1.518;2023-06-10T14:06:52;16.27;;;8.88;;
24153;SDS011;12312;53.362;-1.518;2023-06-10T14:09:36;18.17;;;9.95;;
24153;SDS011;12312;53.362;-1.518;2023-06-10T14:12:20;12.90;;;8.85;;
24153;SDS011;12312;53.362;-1.518;2023-06-10T14:15:04;15.65;;;8.82;;
24153;SDS011;12312;53.362;-1.518;2023-06-10T14:17:48;13.60;;;10.00;;
24153;SDS011;12312;53.362;-1.518;2023-06-10T14:20:32;16.63;;;9.27;;
24153;SDS011;12312;53.362;-1.518;2023-06-10T14:23:16;13.70;;;8.82;;
24153;SDS011;12312;53.362;-1.518;2023-06-10T14:26:01;14.05;;;9.40;;
24153;SDS011;12312;53.362;-1.518;2023-06-10T14:28:46;17.20;;;9.27;;
24153;SDS011;12312;53.362;-1.518;2023-06-10T14:31:30;13.85;;;9.02;;
24153;SDS011;12312;53.362;-1.518;2023-06-10T14:34:14;16.05;;;8.98;;
24153;SDS011;12312;53.362;-1.518;2023-06-10T14:36:59;15.13;;;8.75;;
24153;SDS011;12312;53.362;-1.518;2023-06-10T14:39:43;12.77;;;9.55;;
24153;SDS011;12312;53.362;-1.518;2023-06-10T14:42:27;13.77;;;9.60;;
24153;SDS011;12312;53.362;-1.518;2023-06-10T14:45:11;14.07;;;9.60;;
24153;SDS011;12312;53.362;-1.518;2023-06-10T14:47:55;11.57;;;7.95;;
24153;SDS011;12312;53.362;-1.518;2023-06-10T14:50:39;14.85;;;8.98;;
24153;SDS011;12312;53.362;-1.518;2023-06-10T14:53:29;13.48;;;9.18;;
24153;SDS011;12312;53.362;-1.518;2023-06-10T14:56:13;12.45;;;8.27;;
24153;SDS011;12312;53.362;-1.518;2023-06-10T14:58:57;12.27;;;8.10;;
24153;SDS011;12312;53.362;-1.518;2023-06-10T15:01:40;21.23;;;9.65;;
24153;SDS011;12312;53.362;-1.518;2023-06-10T15:04:25;19.35;;;8.52;;
24153;SDS011;12312;53.362;-1.518;2023-06-10T15:07:08;20.00;;;14.02;;
24153;SDS011;12312;53.362;-1.518;2023-06-10T15:09:52;13.65;;;9.13;;
24153;SDS011;12312;53.362;-1.518;2023-06-10T15:12:36;16.40;;;8.25;;
24153;SDS011;12312;53.362;-1.518;2023-06-10T15:15:21;12.32;;;8.35;;
24153;SDS011;12312;53.362;-1.518;2023-06-10T15:18:06;14.15;;;8.05;;
24153;SDS011;12312;53.362;-1.518;2023-06-10T15:20:50;11.85;;;8.52;;
24153;SDS011;12312;53.362;-1.518;2023-06-10T15:23:34;11.30;;;8.85;;
24153;SDS011;12312;53.362;-1.518;2023-06-10T15:26:18;12.60;;;9.15;;
24153;SDS011;12312;53.362;-1.518;2023-06-10T15:29:02;13.68;;;8.55;;
24153;SDS011;12312;53.362;-1.518;2023-06-10T15:31:48;14.05;;;9.70;;
24153;SDS011;12312;53.362;-1.518;2023-06-10T15:34:32;13.40;;;8.98;;
24153;SDS011;12312;53.362;-1.518;2023-06-10T15:37:16;16.80;;;9.05;;
24153;SDS011;12312;53.362;-1.518;2023-06-10T15:40:00;11.65;;;9.07;;
24153;SDS011;12312;53.362;-1.518;2023-06-10T15:42:44;11.82;;;9.63;;
24153;SDS011;12312;53.362;-1.518;2023-06-10T15:45:27;14.73;;;9.38;;
24153;SDS011;12312;53.362;-1.518;2023-06-10T15:48:11;11.50;;;9.18;;
24153;SDS011;12312;53.362;-1.518;2023-06-10T15:50:55;10.52;;;9.00;;
24153;SDS011;12312;53.362;-1.518;2023-06-10T15:53:39;13.30;;;9.10;;
24153;SDS011;12312;53.362;-1.518;2023-06-10T15:56:23;11.13;;;9.73;;
24153;SDS011;12312;53.362;-1.518;2023-06-10T15:59:09;16.25;;;9.45;;
24153;SDS011;12312;53.362;-1.518;2023-06-10T16:01:55;15.00;;;9.65;;
24153;SDS011;12312;53.362;-1.518;2023-06-10T16:04:39;15.55;;;9.63;;
24153;SDS011;12312;53.362;-1.518;2023-06-10T16:07:23;12.63;;;9.13;;
24153;SDS011;12312;53.362;-1.518;2023-06-10T16:10:07;12.93;;;9.40;;
24153;SDS011;12312;53.362;-1.518;2023-06-10T16:12:52;17.63;;;9.50;;